Weather History for KBYY - January, 2013

Change the Weather History Date:

Thursday, January 3, 2013

  Actual Average (KLBX) Record (KLBX)
Temperature  
Mean Temperature 48 °F -  
Max Temperature 53 °F 61 °F 80 °F (2009)
Min Temperature 42 °F 44 °F 24 °F (2002)
Degree Days  
Heating Degree Days 18    
Moisture  
Dew Point 36 °F    
Average Humidity 65    
Maximum Humidity 85    
Minimum Humidity 46    
Precipitation  
Precipitation 0.00 in - - ()
Sea Level Pressure  
Sea Level Pressure 30.34 in    
Wind  
Wind Speed 9 mph (North)    
Max Wind Speed 16 mph    
Max Gust Speed 21 mph    
Visibility 10 miles    
Events      
Averages and records for this station are not official NWS values.
T = Trace of Precipitation, MM = Missing Value Source: NWS Daily Summary

Daily Weather History Graph

Daily Weather History Graph

Search for Another Location

Airport or City:

Trip Planner

Search our weather history database for the weather conditions in past years. The results will help you decide how hot, cold, wet, or windy it might be!

Date:

Astronomy

Jan. 03, 2013 Rise Set
Actual Time 7:17 AM CST 5:38 PM CST
Civil Twilight 6:51 AM CST 6:04 PM CST
Nautical Twilight 6:22 AM CST 6:34 PM CST
Astronomical Twilight 5:53 AM CST 7:03 PM CST
Moon 11:41 PM CST (1/3) 11:00 AM CST (1/3)
Length of Visible Light 11h 13m
Length of Day
10h 21m
Waning Gibbous, 65% of the Moon is Illuminated
Jan 3
Waning Gibbous
Jan 4
Last Quarter
Jan 11
New
Jan 18
First Quarter
Jan 26
Full

Hourly Weather History & Observations

Time (CST) Temp. Windchill Dew Point Humidity Pressure Visibility Wind Dir Wind Speed Gust Speed Precip Events Conditions
12:15 AM 43.0 °F 38.2 °F 38.7 °F 85% 30.28 in 10.0 mi North 8.1 mph - N/A   Overcast
12:35 AM 43.2 °F 38.4 °F 38.5 °F 84% 30.28 in 10.0 mi North 8.1 mph - N/A   Overcast
12:55 AM 43.2 °F 37.9 °F 38.3 °F 83% 30.28 in 10.0 mi North 9.2 mph - N/A   Overcast
1:15 AM 43.2 °F 39.0 °F 37.9 °F 82% 30.29 in 10.0 mi North 6.9 mph - N/A   Overcast
1:35 AM 43.2 °F 38.4 °F 37.9 °F 82% 30.29 in 10.0 mi North 8.1 mph - N/A   Overcast
1:55 AM 43.2 °F 37.9 °F 37.9 °F 82% 30.29 in 10.0 mi North 9.2 mph - N/A   Overcast
2:15 AM 43.3 °F 38.6 °F 38.1 °F 82% 30.29 in 10.0 mi North 8.1 mph - N/A   Overcast
2:35 AM 43.3 °F 38.6 °F 38.7 °F 84% 30.29 in 10.0 mi North 8.1 mph - N/A   Overcast
2:55 AM 43.3 °F 37.7 °F 38.5 °F 83% 30.29 in 10.0 mi North 10.4 mph - N/A   Overcast
3:15 AM 43.2 °F 38.4 °F 38.3 °F 83% 30.29 in 10.0 mi North 8.1 mph - N/A   Overcast
3:35 AM 43.0 °F 37.7 °F 38.1 °F 83% 30.29 in 10.0 mi North 9.2 mph - N/A   Overcast
3:55 AM 43.0 °F 38.2 °F 37.6 °F 81% 30.30 in 10.0 mi North 8.1 mph - N/A   Overcast
4:15 AM 42.8 °F 37.0 °F 37.4 °F 81% 30.29 in 10.0 mi North 10.4 mph - N/A   Overcast
4:35 AM 42.8 °F 37.5 °F 37.0 °F 80% 30.30 in 10.0 mi North 9.2 mph - N/A   Overcast
4:55 AM 42.8 °F 37.5 °F 36.9 °F 80% 30.30 in 10.0 mi North 9.2 mph - N/A   Overcast
5:15 AM 42.8 °F 37.5 °F 36.7 °F 79% 30.30 in 10.0 mi North 9.2 mph - N/A   Overcast
5:35 AM 42.8 °F 39.3 °F 36.7 °F 79% 30.31 in 10.0 mi North 5.8 mph - N/A   Overcast
5:55 AM 42.8 °F 37.5 °F 36.7 °F 79% 30.32 in 10.0 mi North 9.2 mph - N/A   Overcast
6:15 AM 42.8 °F 38.0 °F 36.7 °F 79% 30.33 in 10.0 mi North 8.1 mph - N/A   Overcast
6:35 AM 42.6 °F 38.4 °F 36.7 °F 79% 30.32 in 10.0 mi North 6.9 mph - N/A   Overcast
6:55 AM 42.6 °F 37.2 °F 36.5 °F 79% 30.33 in 10.0 mi NNE 9.2 mph - N/A   Overcast
7:15 AM 42.4 °F 38.8 °F 36.3 °F 79% 30.34 in 10.0 mi North 5.8 mph - N/A   Overcast
7:35 AM 42.4 °F 37.0 °F 36.1 °F 78% 30.35 in 10.0 mi North 9.2 mph - N/A   Overcast
7:55 AM 42.4 °F 37.0 °F 35.8 °F 77% 30.36 in 10.0 mi North 9.2 mph 16.1 mph N/A   Overcast
8:15 AM 42.6 °F 36.3 °F 35.8 °F 77% 30.36 in 10.0 mi NNE 11.5 mph - N/A   Overcast
8:35 AM 43.0 °F 36.8 °F 36.1 °F 77% 30.37 in 10.0 mi North 11.5 mph 17.3 mph N/A   Overcast
8:55 AM 43.3 °F 37.7 °F 36.0 °F 75% 30.37 in 10.0 mi North 10.4 mph 18.4 mph N/A   Overcast
9:15 AM 43.2 °F 36.2 °F 35.6 °F 75% 30.37 in 10.0 mi North 13.8 mph 17.3 mph N/A   Overcast
9:35 AM 43.5 °F 38.3 °F 35.8 °F 74% 30.38 in 10.0 mi NNE 9.2 mph - N/A   Overcast
9:55 AM 44.2 °F 38.8 °F 36.3 °F 74% 30.39 in 10.0 mi NNE 10.4 mph 16.1 mph N/A   Overcast
10:15 AM 45.3 °F 38.4 °F 36.3 °F 71% 30.39 in 10.0 mi NNE 16.1 mph 20.7 mph N/A   Overcast
10:35 AM 46.0 °F 41.4 °F 36.1 °F 68% 30.39 in 10.0 mi NNE 9.2 mph 16.1 mph N/A   Overcast
10:55 AM 47.5 °F - 36.9 °F 67% 30.39 in 10.0 mi NNE 13.8 mph 18.4 mph N/A   Overcast
11:15 AM 48.9 °F - 36.7 °F 63% 30.38 in 10.0 mi NNE 11.5 mph 19.6 mph N/A   Overcast
11:35 AM 49.3 °F - 36.3 °F 61% 30.37 in 10.0 mi NNE 11.5 mph - N/A   Overcast
11:55 AM 49.8 °F - 35.6 °F 58% 30.37 in 10.0 mi NNE 8.1 mph - N/A   Overcast
12:15 PM 50.4 °F - 35.1 °F 56% 30.36 in 10.0 mi North 8.1 mph - N/A   Overcast
12:35 PM 51.3 °F - 35.1 °F 54% 30.34 in 10.0 mi North 10.4 mph - N/A   Overcast
12:55 PM 52.0 °F - 34.5 °F 51% 30.34 in 10.0 mi North 10.4 mph - N/A   Overcast
1:15 PM 52.9 °F - 34.3 °F 49% 30.33 in 10.0 mi North 9.2 mph - N/A   Overcast
1:35 PM 53.6 °F - 33.8 °F 47% 30.32 in 10.0 mi NNE 9.2 mph - N/A   Overcast
1:55 PM 51.8 °F - 33.8 °F 50% 30.32 in 10.0 mi North 9.2 mph - N/A   Overcast
2:15 PM 53.6 °F - 33.4 °F 46% 30.32 in 10.0 mi North 6.9 mph - N/A   Overcast
2:35 PM 53.8 °F - 34.2 °F 47% 30.33 in 10.0 mi North 9.2 mph - N/A   Overcast
2:55 PM 53.1 °F - 33.4 °F 47% 30.33 in 10.0 mi North 10.4 mph - N/A   Overcast
3:15 PM 51.8 °F - 32.0 °F 47% 30.33 in 10.0 mi North 11.5 mph - N/A   Overcast
3:35 PM 52.2 °F - 32.0 °F 46% 30.33 in 10.0 mi North 12.7 mph - N/A   Overcast
3:55 PM 52.2 °F - 32.0 °F 46% 30.34 in 10.0 mi North 11.5 mph - N/A   Overcast
4:15 PM 51.8 °F - 32.0 °F 47% 30.34 in 10.0 mi North 9.2 mph - N/A   Overcast
4:35 PM 52.2 °F - 32.0 °F 46% 30.34 in 10.0 mi North 10.4 mph - N/A   Overcast
4:55 PM 51.8 °F - 32.0 °F 47% 30.35 in 10.0 mi NNE 8.1 mph - N/A   Overcast
5:15 PM 51.8 °F - 32.2 °F 47% 30.35 in 10.0 mi North 5.8 mph - N/A   Overcast
5:35 PM 51.4 °F - 32.5 °F 49% 30.36 in 10.0 mi North 5.8 mph - N/A   Overcast
5:55 PM 51.8 °F - 32.0 °F 47% 30.36 in 10.0 mi North 9.2 mph - N/A   Overcast
6:15 PM 51.4 °F - 32.9 °F 49% 30.37 in 10.0 mi North 5.8 mph - N/A   Overcast
6:35 PM 51.1 °F - 33.6 °F 51% 30.38 in 10.0 mi North 8.1 mph - N/A   Overcast
6:55 PM 50.9 °F - 34.5 °F 54% 30.39 in 10.0 mi North 8.1 mph - N/A   Overcast
7:15 PM 50.4 °F - 35.1 °F 56% 30.39 in 10.0 mi North 6.9 mph - N/A   Overcast
7:35 PM 50.4 °F - 35.2 °F 56% 30.39 in 10.0 mi North 6.9 mph - N/A   Overcast
7:55 PM 50.4 °F - 35.2 °F 56% 30.39 in 10.0 mi North 9.2 mph - N/A   Overcast
8:15 PM 50.2 °F - 35.6 °F 57% 30.39 in 10.0 mi North 8.1 mph - N/A   Overcast
8:35 PM 50.0 °F - 36.0 °F 59% 30.38 in 10.0 mi North 8.1 mph - N/A   Overcast
8:55 PM 50.0 °F - 36.3 °F 59% 30.39 in 10.0 mi North 9.2 mph - N/A   Overcast
9:15 PM 49.8 °F - 36.7 °F 61% 30.40 in 10.0 mi North 6.9 mph - N/A   Overcast
9:35 PM 49.6 °F - 36.7 °F 61% 30.40 in 10.0 mi North 8.1 mph - N/A   Overcast
9:55 PM 49.5 °F - 36.7 °F 61% 30.39 in 10.0 mi North 8.1 mph - N/A   Overcast
10:15 PM 49.3 °F - 36.5 °F 61% 30.39 in 10.0 mi North 6.9 mph - N/A   Overcast
10:35 PM 49.3 °F - 36.5 °F 61% 30.38 in 10.0 mi NNE 5.8 mph - N/A   Overcast
10:55 PM 49.1 °F - 36.9 °F 63% 30.36 in 10.0 mi NNE 6.9 mph - N/A   Overcast
11:15 PM 49.1 °F - 36.9 °F 63% 30.35 in 10.0 mi NNE 8.1 mph - N/A   Overcast
11:35 PM 48.9 °F - 36.9 °F 63% 30.34 in 10.0 mi NNE 6.9 mph - N/A   Overcast
11:55 PM 47.8 °F - 36.7 °F 65% 30.35 in 10.0 mi NNE 5.8 mph - N/A   Scattered Clouds